sensor_id;sensor_type;location;lat;lon;timestamp;P1;durP1;ratioP1;P2;durP2;ratioP2
3791;SDS011;1911;53.768;11.474;2023-04-03T00:01:31;6.15;;;1.40;;
3791;SDS011;1911;53.768;11.474;2023-04-03T00:03:57;4.57;;;1.70;;
3791;SDS011;1911;53.768;11.474;2023-04-03T00:06:23;3.50;;;1.33;;
3791;SDS011;1911;53.768;11.474;2023-04-03T00:08:49;2.53;;;1.23;;
3791;SDS011;1911;53.768;11.474;2023-04-03T00:11:16;8.67;;;2.03;;
3791;SDS011;1911;53.768;11.474;2023-04-03T00:13:41;9.10;;;1.65;;
3791;SDS011;1911;53.768;11.474;2023-04-03T00:16:08;3.83;;;1.20;;
3791;SDS011;1911;53.768;11.474;2023-04-03T00:18:35;2.38;;;1.40;;
3791;SDS011;1911;53.768;11.474;2023-04-03T00:21:01;3.90;;;1.50;;
3791;SDS011;1911;53.768;11.474;2023-04-03T00:23:27;4.00;;;1.40;;
3791;SDS011;1911;53.768;11.474;2023-04-03T00:25:53;2.97;;;1.10;;
3791;SDS011;1911;53.768;11.474;2023-04-03T00:28:19;5.10;;;1.40;;
3791;SDS011;1911;53.768;11.474;2023-04-03T00:30:45;4.63;;;1.67;;
3791;SDS011;1911;53.768;11.474;2023-04-03T00:33:12;4.27;;;1.83;;
3791;SDS011;1911;53.768;11.474;2023-04-03T00:35:38;4.38;;;1.70;;
3791;SDS011;1911;53.768;11.474;2023-04-03T00:38:04;3.93;;;1.77;;
3791;SDS011;1911;53.768;11.474;2023-04-03T00:40:33;5.90;;;2.30;;
3791;SDS011;1911;53.768;11.474;2023-04-03T00:42:59;6.80;;;2.20;;
3791;SDS011;1911;53.768;11.474;2023-04-03T00:45:28;6.50;;;2.47;;
3791;SDS011;1911;53.768;11.474;2023-04-03T00:47:59;4.47;;;1.55;;
3791;SDS011;1911;53.768;11.474;2023-04-03T00:50:28;5.40;;;1.92;;
3791;SDS011;1911;53.768;11.474;2023-04-03T00:52:55;7.70;;;2.45;;
3791;SDS011;1911;53.768;11.474;2023-04-03T00:55:22;3.28;;;1.85;;
3791;SDS011;1911;53.768;11.474;2023-04-03T00:57:50;6.40;;;2.20;;
3791;SDS011;1911;53.768;11.474;2023-04-03T01:00:18;5.72;;;2.05;;
3791;SDS011;1911;53.768;11.474;2023-04-03T01:02:45;5.10;;;2.47;;
3791;SDS011;1911;53.768;11.474;2023-04-03T01:05:11;3.70;;;1.90;;
3791;SDS011;1911;53.768;11.474;2023-04-03T01:07:37;5.78;;;2.15;;
3791;SDS011;1911;53.768;11.474;2023-04-03T01:10:05;9.07;;;2.30;;
3791;SDS011;1911;53.768;11.474;2023-04-03T01:12:35;10.55;;;2.72;;
3791;SDS011;1911;53.768;11.474;2023-04-03T01:15:07;6.75;;;2.85;;
3791;SDS011;1911;53.768;11.474;2023-04-03T01:17:37;4.75;;;2.70;;
3791;SDS011;1911;53.768;11.474;2023-04-03T01:25:44;8.55;;;3.85;;
3791;SDS011;1911;53.768;11.474;2023-04-03T01:28:13;6.55;;;3.00;;
3791;SDS011;1911;53.768;11.474;2023-04-03T01:31:06;16.10;;;3.50;;
3791;SDS011;1911;53.768;11.474;2023-04-03T01:33:34;8.07;;;3.47;;
3791;SDS011;1911;53.768;11.474;2023-04-03T01:36:00;9.50;;;4.28;;
3791;SDS011;1911;53.768;11.474;2023-04-03T01:38:26;11.35;;;4.75;;
3791;SDS011;1911;53.768;11.474;2023-04-03T01:40:52;13.03;;;4.90;;
3791;SDS011;1911;53.768;11.474;2023-04-03T01:43:17;13.70;;;4.27;;
3791;SDS011;1911;53.768;11.474;2023-04-03T01:45:43;14.23;;;5.13;;
3791;SDS011;1911;53.768;11.474;2023-04-03T01:48:09;11.20;;;4.20;;
3791;SDS011;1911;53.768;11.474;2023-04-03T01:50:34;16.40;;;4.70;;
3791;SDS011;1911;53.768;11.474;2023-04-03T01:53:00;6.30;;;3.93;;
3791;SDS011;1911;53.768;11.474;2023-04-03T01:55:25;8.30;;;4.03;;
3791;SDS011;1911;53.768;11.474;2023-04-03T01:57:51;11.03;;;4.50;;
3791;SDS011;1911;53.768;11.474;2023-04-03T02:00:17;7.60;;;4.50;;
3791;SDS011;1911;53.768;11.474;2023-04-03T02:02:42;11.40;;;4.57;;
3791;SDS011;1911;53.768;11.474;2023-04-03T02:05:08;15.93;;;4.70;;
3791;SDS011;1911;53.768;11.474;2023-04-03T02:07:34;13.73;;;4.40;;
3791;SDS011;1911;53.768;11.474;2023-04-03T02:10:00;8.97;;;4.80;;
3791;SDS011;1911;53.768;11.474;2023-04-03T02:12:25;11.03;;;4.70;;
3791;SDS011;1911;53.768;11.474;2023-04-03T02:14:51;10.37;;;4.63;;
3791;SDS011;1911;53.768;11.474;2023-04-03T02:17:16;10.77;;;5.27;;
3791;SDS011;1911;53.768;11.474;2023-04-03T02:19:42;12.03;;;5.27;;
3791;SDS011;1911;53.768;11.474;2023-04-03T02:22:08;8.73;;;4.87;;
3791;SDS011;1911;53.768;11.474;2023-04-03T02:24:34;9.00;;;5.10;;
3791;SDS011;1911;53.768;11.474;2023-04-03T02:26:59;13.13;;;5.30;;
3791;SDS011;1911;53.768;11.474;2023-04-03T02:29:25;12.30;;;5.40;;
3791;SDS011;1911;53.768;11.474;2023-04-03T02:31:51;6.63;;;4.10;;
3791;SDS011;1911;53.768;11.474;2023-04-03T02:34:16;5.80;;;3.40;;
3791;SDS011;1911;53.768;11.474;2023-04-03T02:36:42;7.40;;;5.03;;
3791;SDS011;1911;53.768;11.474;2023-04-03T02:39:08;8.60;;;4.47;;
3791;SDS011;1911;53.768;11.474;2023-04-03T02:41:34;12.03;;;4.30;;
3791;SDS011;1911;53.768;11.474;2023-04-03T02:44:03;11.00;;;4.40;;
3791;SDS011;1911;53.768;11.474;2023-04-03T02:46:30;11.38;;;4.93;;
3791;SDS011;1911;53.768;11.474;2023-04-03T02:48:56;11.00;;;3.92;;
3791;SDS011;1911;53.768;11.474;2023-04-03T02:51:22;11.27;;;3.80;;
3791;SDS011;1911;53.768;11.474;2023-04-03T02:53:48;10.27;;;4.70;;
3791;SDS011;1911;53.768;11.474;2023-04-03T02:56:14;9.75;;;5.15;;
3791;SDS011;1911;53.768;11.474;2023-04-03T02:58:40;6.80;;;3.92;;
3791;SDS011;1911;53.768;11.474;2023-04-03T03:01:06;8.80;;;4.13;;
3791;SDS011;1911;53.768;11.474;2023-04-03T03:03:31;8.23;;;3.70;;
3791;SDS011;1911;53.768;11.474;2023-04-03T03:06:01;9.03;;;4.33;;
3791;SDS011;1911;53.768;11.474;2023-04-03T03:08:32;4.82;;;3.00;;
3791;SDS011;1911;53.768;11.474;2023-04-03T03:10:58;5.20;;;3.58;;
3791;SDS011;1911;53.768;11.474;2023-04-03T03:13:24;5.70;;;3.60;;
3791;SDS011;1911;53.768;11.474;2023-04-03T03:15:50;7.27;;;3.57;;
3791;SDS011;1911;53.768;11.474;2023-04-03T03:18:16;5.73;;;3.20;;
3791;SDS011;1911;53.768;11.474;2023-04-03T03:20:41;4.30;;;3.00;;
3791;SDS011;1911;53.768;11.474;2023-04-03T03:23:07;4.37;;;2.93;;
3791;SDS011;1911;53.768;11.474;2023-04-03T03:25:33;6.97;;;3.10;;
3791;SDS011;1911;53.768;11.474;2023-04-03T03:27:58;5.73;;;2.60;;
3791;SDS011;1911;53.768;11.474;2023-04-03T03:30:24;7.80;;;2.30;;
3791;SDS011;1911;53.768;11.474;2023-04-03T03:32:50;3.77;;;1.90;;
3791;SDS011;1911;53.768;11.474;2023-04-03T03:35:15;6.37;;;2.17;;
3791;SDS011;1911;53.768;11.474;2023-04-03T03:37:41;5.93;;;1.80;;
3791;SDS011;1911;53.768;11.474;2023-04-03T03:40:06;5.53;;;1.83;;
3791;SDS011;1911;53.768;11.474;2023-04-03T03:42:32;3.25;;;1.50;;
3791;SDS011;1911;53.768;11.474;2023-04-03T03:44:58;4.10;;;1.73;;
3791;SDS011;1911;53.768;11.474;2023-04-03T03:47:24;4.57;;;1.60;;
3791;SDS011;1911;53.768;11.474;2023-04-03T03:49:50;2.40;;;1.10;;
3791;SDS011;1911;53.768;11.474;2023-04-03T03:52:16;4.00;;;1.43;;
3791;SDS011;1911;53.768;11.474;2023-04-03T03:54:41;2.43;;;1.27;;
3791;SDS011;1911;53.768;11.474;2023-04-03T03:57:07;8.53;;;1.60;;
3791;SDS011;1911;53.768;11.474;2023-04-03T03:59:32;3.43;;;2.23;;
3791;SDS011;1911;53.768;11.474;2023-04-03T04:01:58;2.47;;;1.17;;
3791;SDS011;1911;53.768;11.474;2023-04-03T04:04:23;3.40;;;1.43;;
3791;SDS011;1911;53.768;11.474;2023-04-03T04:06:49;2.67;;;1.20;;
3791;SDS011;1911;53.768;11.474;2023-04-03T04:09:15;4.15;;;1.35;;
3791;SDS011;1911;53.768;11.474;2023-04-03T04:11:41;2.50;;;1.07;;
3791;SDS011;1911;53.768;11.474;2023-04-03T04:14:06;2.33;;;1.07;;
3791;SDS011;1911;53.768;11.474;2023-04-03T04:16:32;3.30;;;1.50;;
3791;SDS011;1911;53.768;11.474;2023-04-03T04:18:58;8.00;;;1.37;;
3791;SDS011;1911;53.768;11.474;2023-04-03T04:21:23;10.47;;;1.30;;
3791;SDS011;1911;53.768;11.474;2023-04-03T04:23:49;3.07;;;1.10;;
3791;SDS011;1911;53.768;11.474;2023-04-03T04:26:15;5.73;;;1.73;;
3791;SDS011;1911;53.768;11.474;2023-04-03T04:28:40;3.57;;;0.90;;
3791;SDS011;1911;53.768;11.474;2023-04-03T04:31:06;3.37;;;1.80;;
3791;SDS011;1911;53.768;11.474;2023-04-03T04:33:32;5.10;;;1.57;;
3791;SDS011;1911;53.768;11.474;2023-04-03T04:35:57;2.50;;;1.50;;
3791;SDS011;1911;53.768;11.474;2023-04-03T04:38:23;4.30;;;1.27;;
3791;SDS011;1911;53.768;11.474;2023-04-03T04:40:48;4.13;;;1.30;;
3791;SDS011;1911;53.768;11.474;2023-04-03T04:43:14;2.70;;;1.40;;
3791;SDS011;1911;53.768;11.474;2023-04-03T04:45:40;4.17;;;1.60;;
3791;SDS011;1911;53.768;11.474;2023-04-03T04:48:06;2.90;;;0.90;;
3791;SDS011;1911;53.768;11.474;2023-04-03T04:50:32;3.80;;;1.40;;
3791;SDS011;1911;53.768;11.474;2023-04-03T04:52:57;5.30;;;1.30;;
3791;SDS011;1911;53.768;11.474;2023-04-03T04:55:23;3.30;;;1.40;;
3791;SDS011;1911;53.768;11.474;2023-04-03T04:57:49;5.73;;;2.33;;
3791;SDS011;1911;53.768;11.474;2023-04-03T05:00:15;3.03;;;1.50;;
3791;SDS011;1911;53.768;11.474;2023-04-03T05:02:41;7.15;;;1.95;;
3791;SDS011;1911;53.768;11.474;2023-04-03T05:05:06;2.27;;;0.90;;
3791;SDS011;1911;53.768;11.474;2023-04-03T05:07:32;4.43;;;1.27;;
3791;SDS011;1911;53.768;11.474;2023-04-03T05:10:00;3.50;;;1.45;;
3791;SDS011;1911;53.768;11.474;2023-04-03T05:12:27;2.95;;;1.42;;
3791;SDS011;1911;53.768;11.474;2023-04-03T05:14:53;3.78;;;1.52;;
3791;SDS011;1911;53.768;11.474;2023-04-03T05:17:19;5.50;;;1.70;;
3791;SDS011;1911;53.768;11.474;2023-04-03T05:19:45;2.60;;;1.50;;
3791;SDS011;1911;53.768;11.474;2023-04-03T05:22:11;3.80;;;1.20;;
3791;SDS011;1911;53.768;11.474;2023-04-03T05:24:36;6.63;;;1.87;;
3791;SDS011;1911;53.768;11.474;2023-04-03T05:27:02;3.67;;;1.60;;
3791;SDS011;1911;53.768;11.474;2023-04-03T05:29:28;6.87;;;1.97;;
3791;SDS011;1911;53.768;11.474;2023-04-03T05:31:53;2.73;;;1.30;;
3791;SDS011;1911;53.768;11.474;2023-04-03T05:34:19;5.20;;;2.10;;
3791;SDS011;1911;53.768;11.474;2023-04-03T05:36:45;4.43;;;2.10;;
3791;SDS011;1911;53.768;11.474;2023-04-03T05:39:10;3.40;;;1.57;;
3791;SDS011;1911;53.768;11.474;2023-04-03T05:41:36;5.73;;;1.93;;
3791;SDS011;1911;53.768;11.474;2023-04-03T05:44:02;2.20;;;1.50;;
3791;SDS011;1911;53.768;11.474;2023-04-03T05:46:27;4.77;;;2.27;;
3791;SDS011;1911;53.768;11.474;2023-04-03T05:48:53;4.17;;;1.83;;
3791;SDS011;1911;53.768;11.474;2023-04-03T05:51:24;4.27;;;1.27;;
3791;SDS011;1911;53.768;11.474;2023-04-03T05:53:55;1.83;;;1.00;;
3791;SDS011;1911;53.768;11.474;2023-04-03T05:56:26;8.03;;;1.80;;
3791;SDS011;1911;53.768;11.474;2023-04-03T05:58:52;2.03;;;1.00;;
3791;SDS011;1911;53.768;11.474;2023-04-03T06:01:17;5.53;;;1.77;;
3791;SDS011;1911;53.768;11.474;2023-04-03T06:03:43;4.70;;;1.67;;
3791;SDS011;1911;53.768;11.474;2023-04-03T06:06:11;1.50;;;1.00;;
3791;SDS011;1911;53.768;11.474;2023-04-03T06:08:39;4.10;;;1.00;;
3791;SDS011;1911;53.768;11.474;2023-04-03T06:11:05;4.53;;;1.27;;
3791;SDS011;1911;53.768;11.474;2023-04-03T06:13:30;3.30;;;1.23;;
3791;SDS011;1911;53.768;11.474;2023-04-03T06:15:56;2.00;;;1.10;;
3791;SDS011;1911;53.768;11.474;2023-04-03T06:18:22;2.47;;;1.40;;
3791;SDS011;1911;53.768;11.474;2023-04-03T06:20:48;2.70;;;1.20;;
3791;SDS011;1911;53.768;11.474;2023-04-03T06:23:14;4.53;;;1.10;;
3791;SDS011;1911;53.768;11.474;2023-04-03T06:25:39;2.73;;;0.90;;
3791;SDS011;1911;53.768;11.474;2023-04-03T06:28:05;4.10;;;1.20;;
3791;SDS011;1911;53.768;11.474;2023-04-03T06:30:34;4.53;;;1.13;;
3791;SDS011;1911;53.768;11.474;2023-04-03T06:33:00;1.40;;;0.70;;
3791;SDS011;1911;53.768;11.474;2023-04-03T06:35:25;3.30;;;0.90;;
3791;SDS011;1911;53.768;11.474;2023-04-03T06:37:53;5.80;;;1.00;;
3791;SDS011;1911;53.768;11.474;2023-04-03T06:40:19;2.60;;;1.13;;
3791;SDS011;1911;53.768;11.474;2023-04-03T06:42:47;3.73;;;1.10;;
3791;SDS011;1911;53.768;11.474;2023-04-03T06:45:13;4.10;;;1.27;;
3791;SDS011;1911;53.768;11.474;2023-04-03T06:47:38;3.43;;;1.50;;
3791;SDS011;1911;53.768;11.474;2023-04-03T06:52:59;3.20;;;1.03;;
3791;SDS011;1911;53.768;11.474;2023-04-03T06:55:43;5.13;;;1.00;;
3791;SDS011;1911;53.768;11.474;2023-04-03T06:58:08;11.23;;;1.40;;
3791;SDS011;1911;53.768;11.474;2023-04-03T07:00:37;6.60;;;1.10;;
3791;SDS011;1911;53.768;11.474;2023-04-03T07:03:05;2.63;;;1.00;;
3791;SDS011;1911;53.768;11.474;2023-04-03T07:05:31;2.50;;;1.10;;
3791;SDS011;1911;53.768;11.474;2023-04-03T07:07:57;1.97;;;0.90;;
3791;SDS011;1911;53.768;11.474;2023-04-03T07:10:22;2.90;;;0.80;;
3791;SDS011;1911;53.768;11.474;2023-04-03T07:12:51;2.07;;;0.90;;
3791;SDS011;1911;53.768;11.474;2023-04-03T07:15:19;3.30;;;1.00;;
3791;SDS011;1911;53.768;11.474;2023-04-03T07:17:45;3.77;;;1.13;;
3791;SDS011;1911;53.768;11.474;2023-04-03T07:37:34;4.40;;;1.00;;
3791;SDS011;1911;53.768;11.474;2023-04-03T07:46:55;2.20;;;1.27;;
3791;SDS011;1911;53.768;11.474;2023-04-03T07:56:19;3.73;;;1.00;;
3791;SDS011;1911;53.768;11.474;2023-04-03T07:58:51;3.30;;;0.80;;
3791;SDS011;1911;53.768;11.474;2023-04-03T08:08:17;3.87;;;1.20;;
3791;SDS011;1911;53.768;11.474;2023-04-03T08:11:13;2.60;;;0.70;;
3791;SDS011;1911;53.768;11.474;2023-04-03T08:14:23;3.70;;;0.80;;
3791;SDS011;1911;53.768;11.474;2023-04-03T08:20:07;4.60;;;0.90;;
3791;SDS011;1911;53.768;11.474;2023-04-03T08:23:08;1.77;;;0.70;;
3791;SDS011;1911;53.768;11.474;2023-04-03T08:29:24;3.40;;;1.37;;
3791;SDS011;1911;53.768;11.474;2023-04-03T08:32:29;5.50;;;1.33;;
3791;SDS011;1911;53.768;11.474;2023-04-03T08:38:41;3.47;;;1.10;;
3791;SDS011;1911;53.768;11.474;2023-04-03T09:15:53;2.37;;;1.20;;
3791;SDS011;1911;53.768;11.474;2023-04-03T09:18:23;2.93;;;1.10;;
3791;SDS011;1911;53.768;11.474;2023-04-03T09:23:23;1.63;;;1.17;;
3791;SDS011;1911;53.768;11.474;2023-04-03T09:26:51;4.13;;;1.20;;
3791;SDS011;1911;53.768;11.474;2023-04-03T09:29:05;6.13;;;1.13;;
3791;SDS011;1911;53.768;11.474;2023-04-03T09:31:39;3.03;;;0.93;;
3791;SDS011;1911;53.768;11.474;2023-04-03T09:34:10;3.13;;;1.10;;
3791;SDS011;1911;53.768;11.474;2023-04-03T09:36:56;2.90;;;1.10;;
3791;SDS011;1911;53.768;11.474;2023-04-03T09:39:28;5.97;;;1.30;;
3791;SDS011;1911;53.768;11.474;2023-04-03T09:41:55;1.63;;;0.90;;
3791;SDS011;1911;53.768;11.474;2023-04-03T09:44:38;6.00;;;1.00;;
3791;SDS011;1911;53.768;11.474;2023-04-03T09:52:44;3.73;;;1.10;;
3791;SDS011;1911;53.768;11.474;2023-04-03T09:55:19;1.73;;;1.00;;
3791;SDS011;1911;53.768;11.474;2023-04-03T09:57:59;1.97;;;1.20;;
3791;SDS011;1911;53.768;11.474;2023-04-03T10:00:30;4.60;;;1.17;;
3791;SDS011;1911;53.768;11.474;2023-04-03T10:03:04;4.00;;;1.00;;
3791;SDS011;1911;53.768;11.474;2023-04-03T10:05:41;3.43;;;1.00;;
3791;SDS011;1911;53.768;11.474;2023-04-03T10:10:48;4.20;;;0.77;;
3791;SDS011;1911;53.768;11.474;2023-04-03T10:13:30;2.97;;;1.30;;
3791;SDS011;1911;53.768;11.474;2023-04-03T10:16:03;1.50;;;0.70;;
3791;SDS011;1911;53.768;11.474;2023-04-03T10:18:44;2.33;;;1.13;;
3791;SDS011;1911;53.768;11.474;2023-04-03T10:24:03;4.60;;;1.20;;
3791;SDS011;1911;53.768;11.474;2023-04-03T10:38:11;1.30;;;0.70;;
3791;SDS011;1911;53.768;11.474;2023-04-03T10:40:55;1.60;;;0.70;;
3791;SDS011;1911;53.768;11.474;2023-04-03T10:43:59;2.03;;;0.93;;
3791;SDS011;1911;53.768;11.474;2023-04-03T10:46:37;2.10;;;1.03;;
3791;SDS011;1911;53.768;11.474;2023-04-03T10:49:16;1.13;;;0.80;;
3791;SDS011;1911;53.768;11.474;2023-04-03T10:51:51;2.03;;;0.77;;
3791;SDS011;1911;53.768;11.474;2023-04-03T10:54:36;3.87;;;1.03;;
3791;SDS011;1911;53.768;11.474;2023-04-03T10:57:08;1.87;;;0.70;;
3791;SDS011;1911;53.768;11.474;2023-04-03T10:59:37;1.40;;;0.70;;
3791;SDS011;1911;53.768;11.474;2023-04-03T11:02:14;1.30;;;0.80;;
3791;SDS011;1911;53.768;11.474;2023-04-03T11:04:48;5.73;;;1.67;;
3791;SDS011;1911;53.768;11.474;2023-04-03T11:07:26;4.10;;;1.30;;
3791;SDS011;1911;53.768;11.474;2023-04-03T11:10:10;2.63;;;0.90;;
3791;SDS011;1911;53.768;11.474;2023-04-03T11:12:43;1.63;;;0.77;;
3791;SDS011;1911;53.768;11.474;2023-04-03T11:15:14;1.50;;;0.87;;
3791;SDS011;1911;53.768;11.474;2023-04-03T11:17:55;1.43;;;0.87;;
3791;SDS011;1911;53.768;11.474;2023-04-03T11:20:30;1.57;;;0.60;;
3791;SDS011;1911;53.768;11.474;2023-04-03T11:23:44;2.63;;;0.80;;
3791;SDS011;1911;53.768;11.474;2023-04-03T11:25:54;3.47;;;1.00;;
3791;SDS011;1911;53.768;11.474;2023-04-03T11:28:36;2.20;;;0.80;;
3791;SDS011;1911;53.768;11.474;2023-04-03T11:36:22;3.30;;;1.00;;
3791;SDS011;1911;53.768;11.474;2023-04-03T11:38:52;2.80;;;1.10;;
3791;SDS011;1911;53.768;11.474;2023-04-03T11:41:30;4.20;;;0.97;;
3791;SDS011;1911;53.768;11.474;2023-04-03T11:58:02;4.90;;;1.00;;
3791;SDS011;1911;53.768;11.474;2023-04-03T12:13:42;8.43;;;0.90;;
3791;SDS011;1911;53.768;11.474;2023-04-03T12:16:29;2.90;;;1.20;;
3791;SDS011;1911;53.768;11.474;2023-04-03T12:22:15;2.90;;;0.80;;
3791;SDS011;1911;53.768;11.474;2023-04-03T12:24:45;5.80;;;1.93;;
3791;SDS011;1911;53.768;11.474;2023-04-03T12:32:49;4.20;;;0.80;;
3791;SDS011;1911;53.768;11.474;2023-04-03T12:35:31;8.00;;;1.07;;
3791;SDS011;1911;53.768;11.474;2023-04-03T12:43:44;2.80;;;0.80;;
3791;SDS011;1911;53.768;11.474;2023-04-03T12:46:19;2.20;;;0.70;;
3791;SDS011;1911;53.768;11.474;2023-04-03T12:48:51;2.70;;;0.70;;
3791;SDS011;1911;53.768;11.474;2023-04-03T12:51:41;2.00;;;0.90;;
3791;SDS011;1911;53.768;11.474;2023-04-03T12:54:13;8.50;;;0.93;;
3791;SDS011;1911;53.768;11.474;2023-04-03T12:57:18;1.30;;;0.70;;
3791;SDS011;1911;53.768;11.474;2023-04-03T12:59:46;2.37;;;0.80;;
3791;SDS011;1911;53.768;11.474;2023-04-03T13:02:23;3.30;;;0.90;;
3791;SDS011;1911;53.768;11.474;2023-04-03T13:04:49;1.70;;;0.87;;
3791;SDS011;1911;53.768;11.474;2023-04-03T13:07:23;1.13;;;0.90;;
3791;SDS011;1911;53.768;11.474;2023-04-03T13:10:20;8.03;;;1.03;;
3791;SDS011;1911;53.768;11.474;2023-04-03T13:15:21;1.37;;;0.77;;
3791;SDS011;1911;53.768;11.474;2023-04-03T13:17:49;1.67;;;1.00;;
3791;SDS011;1911;53.768;11.474;2023-04-03T13:20:18;1.50;;;0.80;;
3791;SDS011;1911;53.768;11.474;2023-04-03T13:25:22;1.93;;;1.00;;
3791;SDS011;1911;53.768;11.474;2023-04-03T13:27:50;1.97;;;1.00;;
3791;SDS011;1911;53.768;11.474;2023-04-03T13:32:47;2.10;;;0.70;;
3791;SDS011;1911;53.768;11.474;2023-04-03T13:35:33;3.77;;;1.00;;
3791;SDS011;1911;53.768;11.474;2023-04-03T13:38:00;1.60;;;0.60;;
3791;SDS011;1911;53.768;11.474;2023-04-03T13:40:30;3.67;;;0.73;;
3791;SDS011;1911;53.768;11.474;2023-04-03T13:43:06;1.73;;;0.77;;
3791;SDS011;1911;53.768;11.474;2023-04-03T13:45:53;1.77;;;0.77;;
3791;SDS011;1911;53.768;11.474;2023-04-03T13:48:40;4.40;;;1.07;;
3791;SDS011;1911;53.768;11.474;2023-04-03T13:53:59;1.67;;;0.93;;
3791;SDS011;1911;53.768;11.474;2023-04-03T13:56:29;2.97;;;0.70;;
3791;SDS011;1911;53.768;11.474;2023-04-03T13:59:02;1.80;;;0.77;;
3791;SDS011;1911;53.768;11.474;2023-04-03T14:01:47;6.23;;;1.00;;
3791;SDS011;1911;53.768;11.474;2023-04-03T14:04:20;1.67;;;0.90;;
3791;SDS011;1911;53.768;11.474;2023-04-03T14:06:48;3.53;;;0.90;;
3791;SDS011;1911;53.768;11.474;2023-04-03T14:09:15;4.50;;;0.97;;
3791;SDS011;1911;53.768;11.474;2023-04-03T14:11:41;4.37;;;0.80;;
3791;SDS011;1911;53.768;11.474;2023-04-03T14:14:12;2.60;;;0.80;;
3791;SDS011;1911;53.768;11.474;2023-04-03T14:16:41;1.00;;;0.57;;
3791;SDS011;1911;53.768;11.474;2023-04-03T14:19:20;4.40;;;0.83;;
3791;SDS011;1911;53.768;11.474;2023-04-03T14:21:51;1.87;;;0.90;;
3791;SDS011;1911;53.768;11.474;2023-04-03T14:24:18;2.70;;;0.80;;
3791;SDS011;1911;53.768;11.474;2023-04-03T14:26:47;1.83;;;0.80;;
3791;SDS011;1911;53.768;11.474;2023-04-03T14:29:16;2.20;;;0.70;;
3791;SDS011;1911;53.768;11.474;2023-04-03T14:31:43;2.33;;;1.20;;
3791;SDS011;1911;53.768;11.474;2023-04-03T14:34:10;5.17;;;1.00;;
3791;SDS011;1911;53.768;11.474;2023-04-03T14:36:37;4.80;;;1.27;;
3791;SDS011;1911;53.768;11.474;2023-04-03T14:39:04;4.70;;;1.23;;
3791;SDS011;1911;53.768;11.474;2023-04-03T14:41:30;4.90;;;1.40;;
3791;SDS011;1911;53.768;11.474;2023-04-03T14:43:56;9.80;;;2.00;;
3791;SDS011;1911;53.768;11.474;2023-04-03T14:46:24;2.13;;;1.07;;
3791;SDS011;1911;53.768;11.474;2023-04-03T14:48:54;3.50;;;1.00;;
3791;SDS011;1911;53.768;11.474;2023-04-03T14:51:19;4.13;;;1.10;;
3791;SDS011;1911;53.768;11.474;2023-04-03T14:53:45;2.00;;;0.60;;
3791;SDS011;1911;53.768;11.474;2023-04-03T14:56:14;6.30;;;1.23;;
3791;SDS011;1911;53.768;11.474;2023-04-03T14:58:48;1.43;;;0.60;;
3791;SDS011;1911;53.768;11.474;2023-04-03T15:01:17;4.37;;;0.97;;
3791;SDS011;1911;53.768;11.474;2023-04-03T15:03:43;5.70;;;1.33;;
3791;SDS011;1911;53.768;11.474;2023-04-03T15:06:12;1.50;;;0.80;;
3791;SDS011;1911;53.768;11.474;2023-04-03T15:08:40;1.50;;;0.60;;
3791;SDS011;1911;53.768;11.474;2023-04-03T15:11:07;2.57;;;0.77;;
3791;SDS011;1911;53.768;11.474;2023-04-03T15:13:34;1.80;;;0.80;;
3791;SDS011;1911;53.768;11.474;2023-04-03T15:16:00;1.23;;;0.60;;
3791;SDS011;1911;53.768;11.474;2023-04-03T15:18:26;1.30;;;0.60;;
3791;SDS011;1911;53.768;11.474;2023-04-03T15:20:54;1.80;;;0.93;;
3791;SDS011;1911;53.768;11.474;2023-04-03T15:23:20;3.40;;;1.00;;
3791;SDS011;1911;53.768;11.474;2023-04-03T15:25:51;1.50;;;0.80;;
3791;SDS011;1911;53.768;11.474;2023-04-03T15:30:57;1.70;;;0.70;;
3791;SDS011;1911;53.768;11.474;2023-04-03T15:33:23;4.93;;;0.90;;
3791;SDS011;1911;53.768;11.474;2023-04-03T15:35:49;1.30;;;0.70;;
3791;SDS011;1911;53.768;11.474;2023-04-03T15:38:15;3.13;;;0.70;;
3791;SDS011;1911;53.768;11.474;2023-04-03T15:40:41;2.43;;;1.43;;
3791;SDS011;1911;53.768;11.474;2023-04-03T15:43:08;1.43;;;0.60;;
3791;SDS011;1911;53.768;11.474;2023-04-03T15:45:35;2.27;;;0.83;;
3791;SDS011;1911;53.768;11.474;2023-04-03T15:48:02;4.70;;;1.20;;
3791;SDS011;1911;53.768;11.474;2023-04-03T15:50:28;3.10;;;0.80;;
3791;SDS011;1911;53.768;11.474;2023-04-03T15:52:54;2.90;;;1.20;;
3791;SDS011;1911;53.768;11.474;2023-04-03T15:55:24;4.53;;;0.83;;
3791;SDS011;1911;53.768;11.474;2023-04-03T15:57:51;2.00;;;0.80;;
3791;SDS011;1911;53.768;11.474;2023-04-03T16:00:17;2.43;;;1.07;;
3791;SDS011;1911;53.768;11.474;2023-04-03T16:02:44;3.93;;;0.70;;
3791;SDS011;1911;53.768;11.474;2023-04-03T16:05:12;9.30;;;0.77;;
3791;SDS011;1911;53.768;11.474;2023-04-03T16:10:50;3.83;;;0.83;;
3791;SDS011;1911;53.768;11.474;2023-04-03T16:13:15;6.43;;;1.30;;
3791;SDS011;1911;53.768;11.474;2023-04-03T16:15:41;6.07;;;1.37;;
3791;SDS011;1911;53.768;11.474;2023-04-03T16:18:07;4.43;;;1.73;;
3791;SDS011;1911;53.768;11.474;2023-04-03T16:20:34;3.60;;;0.80;;
3791;SDS011;1911;53.768;11.474;2023-04-03T16:23:00;4.10;;;1.00;;
3791;SDS011;1911;53.768;11.474;2023-04-03T16:25:26;4.30;;;0.70;;
3791;SDS011;1911;53.768;11.474;2023-04-03T16:27:52;2.33;;;0.70;;
3791;SDS011;1911;53.768;11.474;2023-04-03T16:44:42;1.10;;;0.60;;
3791;SDS011;1911;53.768;11.474;2023-04-03T16:47:39;1.37;;;0.93;;
3791;SDS011;1911;53.768;11.474;2023-04-03T17:11:18;2.90;;;0.93;;
3791;SDS011;1911;53.768;11.474;2023-04-03T17:24:45;2.07;;;0.97;;
3791;SDS011;1911;53.768;11.474;2023-04-03T17:28:00;3.30;;;1.27;;
3791;SDS011;1911;53.768;11.474;2023-04-03T17:38:06;3.00;;;1.37;;
3791;SDS011;1911;53.768;11.474;2023-04-03T17:47:59;4.30;;;1.13;;
3791;SDS011;1911;53.768;11.474;2023-04-03T17:50:27;3.03;;;1.97;;
3791;SDS011;1911;53.768;11.474;2023-04-03T17:53:02;1.73;;;1.00;;
3791;SDS011;1911;53.768;11.474;2023-04-03T18:05:29;3.30;;;1.00;;
3791;SDS011;1911;53.768;11.474;2023-04-03T18:08:13;2.03;;;1.17;;
3791;SDS011;1911;53.768;11.474;2023-04-03T18:11:15;3.73;;;1.30;;
3791;SDS011;1911;53.768;11.474;2023-04-03T18:24:51;2.80;;;1.53;;
3791;SDS011;1911;53.768;11.474;2023-04-03T19:09:23;5.32;;;1.20;;
3791;SDS011;1911;53.768;11.474;2023-04-03T19:12:07;4.60;;;1.47;;
3791;SDS011;1911;53.768;11.474;2023-04-03T19:24:59;11.18;;;2.38;;
3791;SDS011;1911;53.768;11.474;2023-04-03T19:27:58;4.03;;;2.00;;
3791;SDS011;1911;53.768;11.474;2023-04-03T19:31:09;2.47;;;1.20;;
3791;SDS011;1911;53.768;11.474;2023-04-03T19:33:46;6.53;;;2.15;;
3791;SDS011;1911;53.768;11.474;2023-04-03T19:43:17;4.63;;;2.75;;
3791;SDS011;1911;53.768;11.474;2023-04-03T19:49:32;6.85;;;2.45;;
3791;SDS011;1911;53.768;11.474;2023-04-03T19:52:07;5.95;;;2.55;;
3791;SDS011;1911;53.768;11.474;2023-04-03T19:54:45;3.65;;;2.17;;
3791;SDS011;1911;53.768;11.474;2023-04-03T20:01:16;19.10;;;6.45;;
3791;SDS011;1911;53.768;11.474;2023-04-03T20:04:00;11.00;;;4.53;;
3791;SDS011;1911;53.768;11.474;2023-04-03T20:07:06;7.43;;;3.22;;
3791;SDS011;1911;53.768;11.474;2023-04-03T20:19:29;8.32;;;3.30;;
3791;SDS011;1911;53.768;11.474;2023-04-03T20:22:38;10.48;;;3.55;;
3791;SDS011;1911;53.768;11.474;2023-04-03T20:25:19;8.00;;;3.53;;
3791;SDS011;1911;53.768;11.474;2023-04-03T20:44:27;4.55;;;1.50;;
3791;SDS011;1911;53.768;11.474;2023-04-03T20:47:00;6.32;;;1.67;;
3791;SDS011;1911;53.768;11.474;2023-04-03T20:53:50;3.30;;;1.70;;
3791;SDS011;1911;53.768;11.474;2023-04-03T21:03:30;3.83;;;1.70;;
3791;SDS011;1911;53.768;11.474;2023-04-03T21:29:08;2.72;;;1.58;;
3791;SDS011;1911;53.768;11.474;2023-04-03T21:41:55;4.90;;;2.05;;
3791;SDS011;1911;53.768;11.474;2023-04-03T21:47:30;2.33;;;1.30;;
3791;SDS011;1911;53.768;11.474;2023-04-03T21:53:55;4.75;;;1.55;;
3791;SDS011;1911;53.768;11.474;2023-04-03T22:00:35;2.20;;;1.15;;
3791;SDS011;1911;53.768;11.474;2023-04-03T22:03:40;5.30;;;1.50;;
3791;SDS011;1911;53.768;11.474;2023-04-03T22:06:46;3.22;;;1.80;;
3791;SDS011;1911;53.768;11.474;2023-04-03T22:13:11;2.25;;;1.50;;
3791;SDS011;1911;53.768;11.474;2023-04-03T22:32:19;5.80;;;2.40;;
3791;SDS011;1911;53.768;11.474;2023-04-03T23:16:15;2.83;;;2.03;;